Melrose Park, Pennsylvania
Current Conditions -  °F | °C
As of 7:54 PM on Friday 24 Oct 2014 (Local Time) from KPNE Reporting Station
Clear Clear  
Wind Chill: 60°   Ceiling: Unl
Heat Index: 60°   Visibility: 10mi
Dew Point: 43°   Wind: 5mph
Humidity: 53%   Direction: 270°W
Pressure: 29.86"   Gusts: NA
Location:  40.0732°N, 75.1248°W
Report Text: KPNE 242354Z AUTO 27004KT 10SM CLR 16/06 A2986 RMK AO2 SLP111 T01560061 10217 20150 53018 TSNO
Loading
Personal Weather Stations






























Interactive Weather Map
Tropical Storm Tracking
New forecast layout! Learn more

10-Day Weather Forecast

Advertisements
Track Severe Weather on mobile